sensor_id;sensor_type;location;lat;lon;timestamp;P1;durP1;ratioP1;P2;durP2;ratioP2
55559;SDS011;41414;53.250;6.514;2022-07-15T00:01:46;11.35;;;2.83;;
55559;SDS011;41414;53.250;6.514;2022-07-15T00:04:13;7.45;;;2.45;;
55559;SDS011;41414;53.250;6.514;2022-07-15T00:06:39;11.70;;;2.42;;
55559;SDS011;41414;53.250;6.514;2022-07-15T00:09:05;6.70;;;1.63;;
55559;SDS011;41414;53.250;6.514;2022-07-15T00:11:31;10.80;;;2.25;;
55559;SDS011;41414;53.250;6.514;2022-07-15T00:13:57;6.90;;;2.03;;
55559;SDS011;41414;53.250;6.514;2022-07-15T00:16:24;5.20;;;1.52;;
55559;SDS011;41414;53.250;6.514;2022-07-15T00:18:50;13.02;;;2.45;;
55559;SDS011;41414;53.250;6.514;2022-07-15T00:21:16;6.82;;;1.73;;
55559;SDS011;41414;53.250;6.514;2022-07-15T00:23:42;8.00;;;2.22;;
55559;SDS011;41414;53.250;6.514;2022-07-15T00:26:08;8.40;;;2.85;;
55559;SDS011;41414;53.250;6.514;2022-07-15T00:28:34;9.27;;;2.22;;
55559;SDS011;41414;53.250;6.514;2022-07-15T00:31:01;7.35;;;2.30;;
55559;SDS011;41414;53.250;6.514;2022-07-15T00:33:27;8.88;;;2.17;;
55559;SDS011;41414;53.250;6.514;2022-07-15T00:35:53;5.93;;;1.80;;
55559;SDS011;41414;53.250;6.514;2022-07-15T00:38:19;10.32;;;2.28;;
55559;SDS011;41414;53.250;6.514;2022-07-15T00:40:46;9.73;;;2.53;;
55559;SDS011;41414;53.250;6.514;2022-07-15T00:43:13;8.68;;;1.67;;
55559;SDS011;41414;53.250;6.514;2022-07-15T00:45:41;6.30;;;1.83;;
55559;SDS011;41414;53.250;6.514;2022-07-15T00:48:08;6.55;;;1.73;;
55559;SDS011;41414;53.250;6.514;2022-07-15T00:50:34;7.32;;;2.10;;
55559;SDS011;41414;53.250;6.514;2022-07-15T00:53:04;9.50;;;2.08;;
55559;SDS011;41414;53.250;6.514;2022-07-15T00:55:32;6.53;;;1.70;;
55559;SDS011;41414;53.250;6.514;2022-07-15T00:58:00;7.18;;;1.85;;
55559;SDS011;41414;53.250;6.514;2022-07-15T01:00:27;8.13;;;2.05;;
55559;SDS011;41414;53.250;6.514;2022-07-15T01:02:54;4.53;;;1.60;;
55559;SDS011;41414;53.250;6.514;2022-07-15T01:05:20;6.63;;;2.00;;
55559;SDS011;41414;53.250;6.514;2022-07-15T01:07:47;11.43;;;1.88;;
55559;SDS011;41414;53.250;6.514;2022-07-15T01:10:15;5.35;;;2.30;;
55559;SDS011;41414;53.250;6.514;2022-07-15T01:12:42;5.53;;;1.80;;
55559;SDS011;41414;53.250;6.514;2022-07-15T01:15:09;5.10;;;1.65;;
55559;SDS011;41414;53.250;6.514;2022-07-15T01:17:35;5.15;;;1.75;;
55559;SDS011;41414;53.250;6.514;2022-07-15T01:20:01;10.38;;;1.88;;
55559;SDS011;41414;53.250;6.514;2022-07-15T01:22:28;7.10;;;2.58;;
55559;SDS011;41414;53.250;6.514;2022-07-15T01:24:54;5.72;;;1.38;;
55559;SDS011;41414;53.250;6.514;2022-07-15T01:27:20;5.80;;;1.83;;
55559;SDS011;41414;53.250;6.514;2022-07-15T01:29:46;7.15;;;1.50;;
55559;SDS011;41414;53.250;6.514;2022-07-15T01:32:13;9.20;;;1.40;;
55559;SDS011;41414;53.250;6.514;2022-07-15T01:34:39;6.85;;;1.38;;
55559;SDS011;41414;53.250;6.514;2022-07-15T01:37:05;6.65;;;1.35;;
55559;SDS011;41414;53.250;6.514;2022-07-15T01:39:31;11.68;;;1.67;;
55559;SDS011;41414;53.250;6.514;2022-07-15T01:41:57;9.55;;;1.90;;
55559;SDS011;41414;53.250;6.514;2022-07-15T01:44:24;5.85;;;1.42;;
55559;SDS011;41414;53.250;6.514;2022-07-15T01:46:50;6.10;;;1.40;;
55559;SDS011;41414;53.250;6.514;2022-07-15T01:49:16;6.03;;;1.40;;
55559;SDS011;41414;53.250;6.514;2022-07-15T01:51:52;7.40;;;1.58;;
55559;SDS011;41414;53.250;6.514;2022-07-15T01:54:20;6.28;;;1.77;;
55559;SDS011;41414;53.250;6.514;2022-07-15T01:56:46;5.07;;;1.38;;
55559;SDS011;41414;53.250;6.514;2022-07-15T01:59:12;4.53;;;1.23;;
55559;SDS011;41414;53.250;6.514;2022-07-15T02:01:39;8.27;;;1.67;;
55559;SDS011;41414;53.250;6.514;2022-07-15T02:04:05;3.60;;;1.20;;
55559;SDS011;41414;53.250;6.514;2022-07-15T02:06:31;7.78;;;1.08;;
55559;SDS011;41414;53.250;6.514;2022-07-15T02:08:57;3.35;;;0.90;;
55559;SDS011;41414;53.250;6.514;2022-07-15T02:11:23;3.55;;;1.35;;
55559;SDS011;41414;53.250;6.514;2022-07-15T02:13:49;7.13;;;1.15;;
55559;SDS011;41414;53.250;6.514;2022-07-15T02:16:16;2.20;;;0.82;;
55559;SDS011;41414;53.250;6.514;2022-07-15T02:18:42;4.38;;;1.10;;
55559;SDS011;41414;53.250;6.514;2022-07-15T02:21:08;2.25;;;0.95;;
55559;SDS011;41414;53.250;6.514;2022-07-15T02:23:35;2.90;;;0.77;;
55559;SDS011;41414;53.250;6.514;2022-07-15T02:26:01;5.28;;;1.27;;
55559;SDS011;41414;53.250;6.514;2022-07-15T02:28:27;5.15;;;0.93;;
55559;SDS011;41414;53.250;6.514;2022-07-15T02:30:53;2.53;;;0.80;;
55559;SDS011;41414;53.250;6.514;2022-07-15T02:33:20;4.90;;;1.00;;
55559;SDS011;41414;53.250;6.514;2022-07-15T02:35:46;5.32;;;1.02;;
55559;SDS011;41414;53.250;6.514;2022-07-15T02:38:12;3.83;;;0.80;;
55559;SDS011;41414;53.250;6.514;2022-07-15T02:40:38;3.25;;;1.05;;
55559;SDS011;41414;53.250;6.514;2022-07-15T02:43:05;1.50;;;0.85;;
55559;SDS011;41414;53.250;6.514;2022-07-15T02:45:33;2.70;;;1.10;;
55559;SDS011;41414;53.250;6.514;2022-07-15T02:47:59;2.72;;;0.90;;
55559;SDS011;41414;53.250;6.514;2022-07-15T02:50:26;4.63;;;1.85;;
55559;SDS011;41414;53.250;6.514;2022-07-15T02:52:52;8.70;;;1.80;;
55559;SDS011;41414;53.250;6.514;2022-07-15T02:55:18;5.20;;;1.52;;
55559;SDS011;41414;53.250;6.514;2022-07-15T02:57:44;7.38;;;1.40;;
55559;SDS011;41414;53.250;6.514;2022-07-15T03:00:12;5.20;;;1.50;;
55559;SDS011;41414;53.250;6.514;2022-07-15T03:02:39;7.03;;;1.50;;
55559;SDS011;41414;53.250;6.514;2022-07-15T03:05:06;7.22;;;1.25;;
55559;SDS011;41414;53.250;6.514;2022-07-15T03:07:32;2.88;;;1.58;;
55559;SDS011;41414;53.250;6.514;2022-07-15T03:09:59;6.35;;;1.50;;
55559;SDS011;41414;53.250;6.514;2022-07-15T03:12:25;4.68;;;1.60;;
55559;SDS011;41414;53.250;6.514;2022-07-15T03:14:51;4.63;;;1.55;;
55559;SDS011;41414;53.250;6.514;2022-07-15T03:17:17;5.00;;;1.80;;
55559;SDS011;41414;53.250;6.514;2022-07-15T03:19:43;3.88;;;1.38;;
55559;SDS011;41414;53.250;6.514;2022-07-15T03:22:09;3.42;;;1.42;;
55559;SDS011;41414;53.250;6.514;2022-07-15T03:24:36;4.03;;;1.67;;
55559;SDS011;41414;53.250;6.514;2022-07-15T03:27:02;4.00;;;1.80;;
55559;SDS011;41414;53.250;6.514;2022-07-15T03:29:28;3.05;;;1.50;;
55559;SDS011;41414;53.250;6.514;2022-07-15T03:31:55;7.57;;;1.85;;
55559;SDS011;41414;53.250;6.514;2022-07-15T03:34:21;2.22;;;1.40;;
55559;SDS011;41414;53.250;6.514;2022-07-15T03:36:50;4.43;;;1.88;;
55559;SDS011;41414;53.250;6.514;2022-07-15T03:39:16;8.20;;;1.90;;
55559;SDS011;41414;53.250;6.514;2022-07-15T03:41:42;12.32;;;2.22;;
55559;SDS011;41414;53.250;6.514;2022-07-15T03:44:09;4.22;;;1.58;;
55559;SDS011;41414;53.250;6.514;2022-07-15T03:46:35;7.82;;;1.85;;
55559;SDS011;41414;53.250;6.514;2022-07-15T03:49:01;5.57;;;1.77;;
55559;SDS011;41414;53.250;6.514;2022-07-15T03:51:27;5.20;;;1.50;;
55559;SDS011;41414;53.250;6.514;2022-07-15T03:53:57;3.95;;;1.55;;
55559;SDS011;41414;53.250;6.514;2022-07-15T03:56:23;4.00;;;1.65;;
55559;SDS011;41414;53.250;6.514;2022-07-15T03:58:49;4.50;;;1.80;;
55559;SDS011;41414;53.250;6.514;2022-07-15T04:01:16;3.55;;;1.77;;
55559;SDS011;41414;53.250;6.514;2022-07-15T04:03:42;4.30;;;2.00;;
55559;SDS011;41414;53.250;6.514;2022-07-15T04:06:08;5.05;;;1.42;;
55559;SDS011;41414;53.250;6.514;2022-07-15T04:08:34;4.55;;;1.55;;
55559;SDS011;41414;53.250;6.514;2022-07-15T04:11:00;2.83;;;1.17;;
55559;SDS011;41414;53.250;6.514;2022-07-15T04:13:26;7.15;;;1.70;;
55559;SDS011;41414;53.250;6.514;2022-07-15T04:15:52;5.53;;;2.08;;
55559;SDS011;41414;53.250;6.514;2022-07-15T04:18:19;3.80;;;1.63;;
55559;SDS011;41414;53.250;6.514;2022-07-15T04:20:45;4.43;;;1.65;;
55559;SDS011;41414;53.250;6.514;2022-07-15T04:23:11;3.28;;;1.70;;
55559;SDS011;41414;53.250;6.514;2022-07-15T04:25:37;6.78;;;2.10;;
55559;SDS011;41414;53.250;6.514;2022-07-15T04:28:05;8.75;;;2.05;;
55559;SDS011;41414;53.250;6.514;2022-07-15T04:30:31;6.78;;;1.95;;
55559;SDS011;41414;53.250;6.514;2022-07-15T04:32:57;2.50;;;1.30;;
55559;SDS011;41414;53.250;6.514;2022-07-15T04:35:23;6.82;;;1.58;;
55559;SDS011;41414;53.250;6.514;2022-07-15T04:37:50;6.93;;;1.50;;
55559;SDS011;41414;53.250;6.514;2022-07-15T04:40:16;4.63;;;1.20;;
55559;SDS011;41414;53.250;6.514;2022-07-15T04:42:43;6.28;;;2.03;;
55559;SDS011;41414;53.250;6.514;2022-07-15T04:45:09;2.25;;;1.27;;
55559;SDS011;41414;53.250;6.514;2022-07-15T04:47:36;3.58;;;1.10;;
55559;SDS011;41414;53.250;6.514;2022-07-15T04:50:02;3.45;;;1.40;;
55559;SDS011;41414;53.250;6.514;2022-07-15T04:52:47;6.40;;;1.40;;
55559;SDS011;41414;53.250;6.514;2022-07-15T04:55:14;4.72;;;1.23;;
55559;SDS011;41414;53.250;6.514;2022-07-15T04:57:40;3.55;;;1.40;;
55559;SDS011;41414;53.250;6.514;2022-07-15T05:00:07;6.22;;;1.60;;
55559;SDS011;41414;53.250;6.514;2022-07-15T05:02:34;6.20;;;1.55;;
55559;SDS011;41414;53.250;6.514;2022-07-15T05:05:00;3.10;;;1.15;;
55559;SDS011;41414;53.250;6.514;2022-07-15T05:07:26;5.82;;;1.27;;
55559;SDS011;41414;53.250;6.514;2022-07-15T05:09:52;4.72;;;1.33;;
55559;SDS011;41414;53.250;6.514;2022-07-15T05:12:19;3.83;;;1.23;;
55559;SDS011;41414;53.250;6.514;2022-07-15T05:14:45;6.20;;;1.88;;
55559;SDS011;41414;53.250;6.514;2022-07-15T05:17:12;3.13;;;1.15;;
55559;SDS011;41414;53.250;6.514;2022-07-15T05:19:38;6.47;;;1.30;;
55559;SDS011;41414;53.250;6.514;2022-07-15T05:22:04;4.78;;;1.05;;
55559;SDS011;41414;53.250;6.514;2022-07-15T05:24:30;3.50;;;1.17;;
55559;SDS011;41414;53.250;6.514;2022-07-15T05:26:57;6.82;;;1.35;;
55559;SDS011;41414;53.250;6.514;2022-07-15T05:29:24;3.88;;;1.27;;
55559;SDS011;41414;53.250;6.514;2022-07-15T05:31:50;7.32;;;1.35;;
55559;SDS011;41414;53.250;6.514;2022-07-15T05:34:17;3.75;;;1.30;;
55559;SDS011;41414;53.250;6.514;2022-07-15T05:36:43;3.85;;;1.20;;
55559;SDS011;41414;53.250;6.514;2022-07-15T05:39:09;4.70;;;1.15;;
55559;SDS011;41414;53.250;6.514;2022-07-15T05:41:35;2.97;;;1.08;;
55559;SDS011;41414;53.250;6.514;2022-07-15T05:44:01;2.70;;;1.00;;
55559;SDS011;41414;53.250;6.514;2022-07-15T05:46:28;3.85;;;1.10;;
55559;SDS011;41414;53.250;6.514;2022-07-15T05:48:54;4.55;;;1.17;;
55559;SDS011;41414;53.250;6.514;2022-07-15T05:51:20;5.65;;;1.45;;
55559;SDS011;41414;53.250;6.514;2022-07-15T05:53:46;3.60;;;0.70;;
55559;SDS011;41414;53.250;6.514;2022-07-15T05:56:12;7.00;;;1.02;;
55559;SDS011;41414;53.250;6.514;2022-07-15T05:58:38;4.07;;;0.88;;
55559;SDS011;41414;53.250;6.514;2022-07-15T06:01:04;4.95;;;1.00;;
55559;SDS011;41414;53.250;6.514;2022-07-15T06:03:31;4.25;;;1.95;;
55559;SDS011;41414;53.250;6.514;2022-07-15T06:05:57;4.78;;;1.35;;
55559;SDS011;41414;53.250;6.514;2022-07-15T06:08:24;4.57;;;1.40;;
55559;SDS011;41414;53.250;6.514;2022-07-15T06:10:50;5.75;;;1.50;;
55559;SDS011;41414;53.250;6.514;2022-07-15T06:13:16;3.67;;;1.65;;
55559;SDS011;41414;53.250;6.514;2022-07-15T06:15:44;4.93;;;1.65;;
55559;SDS011;41414;53.250;6.514;2022-07-15T06:18:10;10.43;;;1.65;;
55559;SDS011;41414;53.250;6.514;2022-07-15T06:20:37;5.63;;;1.00;;
55559;SDS011;41414;53.250;6.514;2022-07-15T06:23:03;6.40;;;1.08;;
55559;SDS011;41414;53.250;6.514;2022-07-15T06:25:29;5.13;;;1.02;;
55559;SDS011;41414;53.250;6.514;2022-07-15T06:27:55;4.18;;;0.93;;
55559;SDS011;41414;53.250;6.514;2022-07-15T06:30:21;7.93;;;1.25;;
55559;SDS011;41414;53.250;6.514;2022-07-15T06:32:47;5.90;;;1.02;;
55559;SDS011;41414;53.250;6.514;2022-07-15T06:35:14;4.38;;;1.13;;
55559;SDS011;41414;53.250;6.514;2022-07-15T06:37:40;1.88;;;1.20;;
55559;SDS011;41414;53.250;6.514;2022-07-15T06:40:06;6.72;;;1.10;;
55559;SDS011;41414;53.250;6.514;2022-07-15T06:42:33;2.47;;;0.82;;
55559;SDS011;41414;53.250;6.514;2022-07-15T06:44:59;6.45;;;1.10;;
55559;SDS011;41414;53.250;6.514;2022-07-15T06:47:25;1.90;;;1.00;;
55559;SDS011;41414;53.250;6.514;2022-07-15T06:49:51;3.83;;;0.80;;
55559;SDS011;41414;53.250;6.514;2022-07-15T06:52:17;4.32;;;1.05;;
55559;SDS011;41414;53.250;6.514;2022-07-15T06:54:44;3.75;;;1.10;;
55559;SDS011;41414;53.250;6.514;2022-07-15T06:57:10;3.22;;;0.93;;
55559;SDS011;41414;53.250;6.514;2022-07-15T06:59:38;5.93;;;1.30;;
55559;SDS011;41414;53.250;6.514;2022-07-15T07:02:04;4.03;;;0.93;;
55559;SDS011;41414;53.250;6.514;2022-07-15T07:04:30;2.97;;;1.27;;
55559;SDS011;41414;53.250;6.514;2022-07-15T07:06:56;5.68;;;1.13;;
55559;SDS011;41414;53.250;6.514;2022-07-15T07:09:23;4.15;;;0.98;;
55559;SDS011;41414;53.250;6.514;2022-07-15T07:11:49;5.68;;;1.20;;
55559;SDS011;41414;53.250;6.514;2022-07-15T07:14:16;2.80;;;0.90;;
55559;SDS011;41414;53.250;6.514;2022-07-15T07:16:42;5.35;;;1.30;;
55559;SDS011;41414;53.250;6.514;2022-07-15T07:19:08;3.75;;;1.05;;
55559;SDS011;41414;53.250;6.514;2022-07-15T07:21:34;6.72;;;1.30;;
55559;SDS011;41414;53.250;6.514;2022-07-15T07:24:00;7.10;;;0.95;;
55559;SDS011;41414;53.250;6.514;2022-07-15T07:26:27;4.07;;;0.90;;
55559;SDS011;41414;53.250;6.514;2022-07-15T07:28:53;2.67;;;1.00;;
55559;SDS011;41414;53.250;6.514;2022-07-15T07:31:19;4.80;;;0.63;;
55559;SDS011;41414;53.250;6.514;2022-07-15T07:36:16;1.73;;;0.40;;
55559;SDS011;41414;53.250;6.514;2022-07-15T07:38:43;2.88;;;0.68;;
55559;SDS011;41414;53.250;6.514;2022-07-15T07:41:09;3.58;;;0.80;;
55559;SDS011;41414;53.250;6.514;2022-07-15T07:43:35;3.55;;;0.70;;
55559;SDS011;41414;53.250;6.514;2022-07-15T07:46:02;2.60;;;0.60;;
55559;SDS011;41414;53.250;6.514;2022-07-15T07:48:29;4.65;;;0.60;;
55559;SDS011;41414;53.250;6.514;2022-07-15T07:50:55;3.10;;;0.60;;
55559;SDS011;41414;53.250;6.514;2022-07-15T07:53:22;1.88;;;0.70;;
55559;SDS011;41414;53.250;6.514;2022-07-15T07:55:48;1.40;;;0.35;;
55559;SDS011;41414;53.250;6.514;2022-07-15T07:58:15;7.05;;;0.77;;
55559;SDS011;41414;53.250;6.514;2022-07-15T08:00:42;4.57;;;0.47;;
55559;SDS011;41414;53.250;6.514;2022-07-15T08:03:09;2.88;;;0.50;;
55559;SDS011;41414;53.250;6.514;2022-07-15T08:05:35;1.52;;;0.30;;
55559;SDS011;41414;53.250;6.514;2022-07-15T08:08:11;1.55;;;0.30;;
55559;SDS011;41414;53.250;6.514;2022-07-15T08:10:38;5.28;;;0.70;;
55559;SDS011;41414;53.250;6.514;2022-07-15T08:13:04;8.38;;;0.85;;
55559;SDS011;41414;53.250;6.514;2022-07-15T08:15:31;4.50;;;0.50;;
55559;SDS011;41414;53.250;6.514;2022-07-15T08:17:57;1.23;;;0.60;;
55559;SDS011;41414;53.250;6.514;2022-07-15T08:20:23;3.42;;;0.65;;
55559;SDS011;41414;53.250;6.514;2022-07-15T08:22:49;3.80;;;0.55;;
55559;SDS011;41414;53.250;6.514;2022-07-15T08:25:22;0.98;;;0.60;;
55559;SDS011;41414;53.250;6.514;2022-07-15T08:27:49;4.03;;;0.40;;
55559;SDS011;41414;53.250;6.514;2022-07-15T08:30:15;1.77;;;0.47;;
55559;SDS011;41414;53.250;6.514;2022-07-15T08:32:41;1.50;;;0.68;;
55559;SDS011;41414;53.250;6.514;2022-07-15T08:35:07;5.20;;;0.55;;
55559;SDS011;41414;53.250;6.514;2022-07-15T08:37:33;2.35;;;0.55;;
55559;SDS011;41414;53.250;6.514;2022-07-15T08:39:59;2.15;;;0.60;;
55559;SDS011;41414;53.250;6.514;2022-07-15T08:42:26;1.95;;;0.60;;
55559;SDS011;41414;53.250;6.514;2022-07-15T08:44:52;3.40;;;0.80;;
55559;SDS011;41414;53.250;6.514;2022-07-15T08:47:19;2.72;;;0.52;;
55559;SDS011;41414;53.250;6.514;2022-07-15T08:49:45;2.17;;;0.60;;
55559;SDS011;41414;53.250;6.514;2022-07-15T08:52:13;1.35;;;0.57;;
55559;SDS011;41414;53.250;6.514;2022-07-15T08:54:40;1.58;;;0.60;;
55559;SDS011;41414;53.250;6.514;2022-07-15T08:57:07;1.67;;;0.60;;
55559;SDS011;41414;53.250;6.514;2022-07-15T08:59:33;1.75;;;0.40;;
55559;SDS011;41414;53.250;6.514;2022-07-15T09:01:59;2.97;;;0.70;;
55559;SDS011;41414;53.250;6.514;2022-07-15T09:04:25;2.80;;;0.60;;
55559;SDS011;41414;53.250;6.514;2022-07-15T09:06:52;2.78;;;0.50;;
55559;SDS011;41414;53.250;6.514;2022-07-15T09:14:25;3.65;;;0.73;;
55559;SDS011;41414;53.250;6.514;2022-07-15T09:17:04;2.50;;;0.60;;
55559;SDS011;41414;53.250;6.514;2022-07-15T09:20:10;1.85;;;0.70;;
55559;SDS011;41414;53.250;6.514;2022-07-15T09:22:28;0.98;;;0.50;;
55559;SDS011;41414;53.250;6.514;2022-07-15T09:25:03;5.28;;;0.57;;
55559;SDS011;41414;53.250;6.514;2022-07-15T09:27:31;3.20;;;0.50;;
55559;SDS011;41414;53.250;6.514;2022-07-15T09:30:15;1.95;;;0.70;;
55559;SDS011;41414;53.250;6.514;2022-07-15T09:33:01;1.55;;;0.40;;
55559;SDS011;41414;53.250;6.514;2022-07-15T09:35:46;2.10;;;0.40;;
55559;SDS011;41414;53.250;6.514;2022-07-15T09:38:32;4.90;;;0.90;;
55559;SDS011;41414;53.250;6.514;2022-07-15T09:43:24;7.10;;;1.77;;
55559;SDS011;41414;53.250;6.514;2022-07-15T09:45:55;4.28;;;0.82;;
55559;SDS011;41414;53.250;6.514;2022-07-15T09:48:22;7.30;;;0.90;;
55559;SDS011;41414;53.250;6.514;2022-07-15T09:50:50;2.15;;;0.63;;
55559;SDS011;41414;53.250;6.514;2022-07-15T09:53:16;4.75;;;0.70;;
55559;SDS011;41414;53.250;6.514;2022-07-15T09:55:42;0.90;;;0.50;;
55559;SDS011;41414;53.250;6.514;2022-07-15T09:58:08;1.08;;;0.50;;
55559;SDS011;41414;53.250;6.514;2022-07-15T10:00:36;0.95;;;0.30;;
55559;SDS011;41414;53.250;6.514;2022-07-15T10:03:03;3.78;;;0.40;;
55559;SDS011;41414;53.250;6.514;2022-07-15T10:05:29;2.30;;;0.70;;
55559;SDS011;41414;53.250;6.514;2022-07-15T10:07:57;3.47;;;0.52;;
55559;SDS011;41414;53.250;6.514;2022-07-15T10:10:23;3.75;;;0.57;;
55559;SDS011;41414;53.250;6.514;2022-07-15T10:12:56;2.63;;;0.90;;
55559;SDS011;41414;53.250;6.514;2022-07-15T10:18:19;2.28;;;0.65;;
55559;SDS011;41414;53.250;6.514;2022-07-15T10:23:48;2.92;;;0.70;;
55559;SDS011;41414;53.250;6.514;2022-07-15T10:26:37;0.73;;;0.43;;
55559;SDS011;41414;53.250;6.514;2022-07-15T10:29:07;3.75;;;0.80;;
55559;SDS011;41414;53.250;6.514;2022-07-15T10:31:34;3.97;;;1.25;;
55559;SDS011;41414;53.250;6.514;2022-07-15T10:34:15;2.63;;;0.77;;
55559;SDS011;41414;53.250;6.514;2022-07-15T10:39:12;2.38;;;0.40;;
55559;SDS011;41414;53.250;6.514;2022-07-15T10:44:11;0.63;;;0.40;;
55559;SDS011;41414;53.250;6.514;2022-07-15T10:46:37;1.90;;;0.40;;
55559;SDS011;41414;53.250;6.514;2022-07-15T10:54:03;4.18;;;0.60;;
55559;SDS011;41414;53.250;6.514;2022-07-15T10:56:30;1.90;;;0.43;;
55559;SDS011;41414;53.250;6.514;2022-07-15T10:59:07;1.58;;;0.60;;
55559;SDS011;41414;53.250;6.514;2022-07-15T11:01:33;3.58;;;0.80;;
55559;SDS011;41414;53.250;6.514;2022-07-15T11:09:46;1.00;;;0.55;;
55559;SDS011;41414;53.250;6.514;2022-07-15T11:12:13;5.60;;;0.40;;
55559;SDS011;41414;53.250;6.514;2022-07-15T11:14:42;2.28;;;0.98;;
55559;SDS011;41414;53.250;6.514;2022-07-15T11:17:09;5.07;;;0.73;;
55559;SDS011;41414;53.250;6.514;2022-07-15T11:19:35;1.83;;;0.50;;
55559;SDS011;41414;53.250;6.514;2022-07-15T11:22:02;0.93;;;0.60;;
55559;SDS011;41414;53.250;6.514;2022-07-15T11:24:28;1.05;;;0.50;;
55559;SDS011;41414;53.250;6.514;2022-07-15T11:26:59;6.25;;;0.95;;
55559;SDS011;41414;53.250;6.514;2022-07-15T11:29:25;3.22;;;0.80;;
55559;SDS011;41414;53.250;6.514;2022-07-15T11:31:51;5.72;;;1.05;;
55559;SDS011;41414;53.250;6.514;2022-07-15T11:34:17;7.43;;;1.08;;
55559;SDS011;41414;53.250;6.514;2022-07-15T11:36:43;4.68;;;0.80;;
55559;SDS011;41414;53.250;6.514;2022-07-15T11:39:10;1.65;;;0.50;;
55559;SDS011;41414;53.250;6.514;2022-07-15T11:41:36;3.05;;;0.80;;
55559;SDS011;41414;53.250;6.514;2022-07-15T11:44:20;2.05;;;0.70;;
55559;SDS011;41414;53.250;6.514;2022-07-15T11:46:57;1.42;;;0.63;;
55559;SDS011;41414;53.250;6.514;2022-07-15T11:49:25;2.38;;;0.90;;
55559;SDS011;41414;53.250;6.514;2022-07-15T11:51:52;3.13;;;0.85;;
55559;SDS011;41414;53.250;6.514;2022-07-15T11:54:20;1.52;;;0.80;;
55559;SDS011;41414;53.250;6.514;2022-07-15T11:56:53;2.72;;;0.60;;
55559;SDS011;41414;53.250;6.514;2022-07-15T11:59:19;5.90;;;1.08;;
55559;SDS011;41414;53.250;6.514;2022-07-15T12:01:45;4.63;;;0.93;;
55559;SDS011;41414;53.250;6.514;2022-07-15T12:04:12;5.28;;;0.88;;
55559;SDS011;41414;53.250;6.514;2022-07-15T12:06:38;2.22;;;0.88;;
55559;SDS011;41414;53.250;6.514;2022-07-15T12:09:05;3.53;;;0.93;;
55559;SDS011;41414;53.250;6.514;2022-07-15T12:11:35;1.90;;;0.77;;
55559;SDS011;41414;53.250;6.514;2022-07-15T12:14:04;4.13;;;1.10;;
55559;SDS011;41414;53.250;6.514;2022-07-15T12:16:31;2.50;;;1.13;;
55559;SDS011;41414;53.250;6.514;2022-07-15T12:18:59;3.67;;;1.00;;
55559;SDS011;41414;53.250;6.514;2022-07-15T12:21:26;4.43;;;1.00;;
55559;SDS011;41414;53.250;6.514;2022-07-15T12:24:00;4.25;;;1.30;;
55559;SDS011;41414;53.250;6.514;2022-07-15T12:26:26;6.20;;;1.23;;
55559;SDS011;41414;53.250;6.514;2022-07-15T12:28:54;2.58;;;1.10;;
55559;SDS011;41414;53.250;6.514;2022-07-15T12:31:24;4.05;;;1.25;;
55559;SDS011;41414;53.250;6.514;2022-07-15T12:33:50;3.45;;;1.20;;
55559;SDS011;41414;53.250;6.514;2022-07-15T12:36:19;5.38;;;1.15;;
55559;SDS011;41414;53.250;6.514;2022-07-15T12:39:00;3.03;;;1.02;;
55559;SDS011;41414;53.250;6.514;2022-07-15T12:41:26;4.65;;;1.42;;
55559;SDS011;41414;53.250;6.514;2022-07-15T12:43:54;3.92;;;1.55;;
55559;SDS011;41414;53.250;6.514;2022-07-15T12:46:47;2.58;;;1.00;;
55559;SDS011;41414;53.250;6.514;2022-07-15T12:49:07;2.63;;;1.05;;
55559;SDS011;41414;53.250;6.514;2022-07-15T12:51:34;2.15;;;1.05;;
55559;SDS011;41414;53.250;6.514;2022-07-15T12:54:07;2.70;;;1.02;;
55559;SDS011;41414;53.250;6.514;2022-07-15T12:56:50;3.83;;;1.13;;
55559;SDS011;41414;53.250;6.514;2022-07-15T12:59:16;3.85;;;1.10;;
55559;SDS011;41414;53.250;6.514;2022-07-15T13:01:43;1.67;;;1.05;;
55559;SDS011;41414;53.250;6.514;2022-07-15T13:04:10;4.68;;;1.63;;
55559;SDS011;41414;53.250;6.514;2022-07-15T13:06:36;2.88;;;1.13;;
55559;SDS011;41414;53.250;6.514;2022-07-15T13:09:02;5.40;;;1.67;;
55559;SDS011;41414;53.250;6.514;2022-07-15T13:11:28;2.95;;;1.00;;
55559;SDS011;41414;53.250;6.514;2022-07-15T13:13:54;3.45;;;1.30;;
55559;SDS011;41414;53.250;6.514;2022-07-15T13:16:20;2.00;;;1.42;;
55559;SDS011;41414;53.250;6.514;2022-07-15T13:18:46;5.47;;;1.10;;
55559;SDS011;41414;53.250;6.514;2022-07-15T13:21:13;3.30;;;1.27;;
55559;SDS011;41414;53.250;6.514;2022-07-15T13:23:39;2.90;;;1.30;;
55559;SDS011;41414;53.250;6.514;2022-07-15T13:26:05;1.23;;;0.85;;
55559;SDS011;41414;53.250;6.514;2022-07-15T13:28:32;6.35;;;1.33;;
55559;SDS011;41414;53.250;6.514;2022-07-15T13:30:58;2.70;;;1.40;;
55559;SDS011;41414;53.250;6.514;2022-07-15T13:33:24;4.85;;;1.27;;
55559;SDS011;41414;53.250;6.514;2022-07-15T13:35:50;4.25;;;1.45;;
55559;SDS011;41414;53.250;6.514;2022-07-15T13:38:19;2.55;;;1.52;;
55559;SDS011;41414;53.250;6.514;2022-07-15T13:40:45;2.65;;;1.10;;
55559;SDS011;41414;53.250;6.514;2022-07-15T13:43:11;2.22;;;1.02;;
55559;SDS011;41414;53.250;6.514;2022-07-15T13:45:38;3.00;;;1.35;;
55559;SDS011;41414;53.250;6.514;2022-07-15T13:48:05;4.78;;;1.23;;
55559;SDS011;41414;53.250;6.514;2022-07-15T13:50:31;3.70;;;1.00;;
55559;SDS011;41414;53.250;6.514;2022-07-15T13:53:15;2.45;;;1.25;;
55559;SDS011;41414;53.250;6.514;2022-07-15T13:55:42;1.95;;;1.30;;
55559;SDS011;41414;53.250;6.514;2022-07-15T13:58:08;5.15;;;1.50;;
55559;SDS011;41414;53.250;6.514;2022-07-15T14:00:35;4.43;;;1.20;;
55559;SDS011;41414;53.250;6.514;2022-07-15T14:03:04;3.75;;;1.50;;
55559;SDS011;41414;53.250;6.514;2022-07-15T14:05:31;4.10;;;1.77;;
55559;SDS011;41414;53.250;6.514;2022-07-15T14:07:57;3.92;;;1.67;;
55559;SDS011;41414;53.250;6.514;2022-07-15T14:10:23;4.07;;;1.77;;
55559;SDS011;41414;53.250;6.514;2022-07-15T14:12:49;2.75;;;1.13;;
55559;SDS011;41414;53.250;6.514;2022-07-15T14:15:16;5.53;;;1.20;;
55559;SDS011;41414;53.250;6.514;2022-07-15T14:17:42;2.90;;;0.93;;
55559;SDS011;41414;53.250;6.514;2022-07-15T14:20:08;2.88;;;1.20;;
55559;SDS011;41414;53.250;6.514;2022-07-15T14:22:35;3.15;;;1.20;;
55559;SDS011;41414;53.250;6.514;2022-07-15T14:25:01;3.20;;;1.42;;
55559;SDS011;41414;53.250;6.514;2022-07-15T14:27:28;3.85;;;1.23;;
55559;SDS011;41414;53.250;6.514;2022-07-15T14:29:54;6.68;;;1.10;;
55559;SDS011;41414;53.250;6.514;2022-07-15T14:32:20;3.67;;;1.38;;
55559;SDS011;41414;53.250;6.514;2022-07-15T14:34:47;5.60;;;1.35;;
55559;SDS011;41414;53.250;6.514;2022-07-15T14:37:14;3.42;;;1.13;;
55559;SDS011;41414;53.250;6.514;2022-07-15T14:39:40;3.45;;;1.38;;
55559;SDS011;41414;53.250;6.514;2022-07-15T14:42:06;3.65;;;1.58;;
55559;SDS011;41414;53.250;6.514;2022-07-15T14:44:32;1.35;;;1.02;;
55559;SDS011;41414;53.250;6.514;2022-07-15T14:46:58;5.10;;;1.50;;
55559;SDS011;41414;53.250;6.514;2022-07-15T14:49:24;2.55;;;1.70;;
55559;SDS011;41414;53.250;6.514;2022-07-15T14:51:51;5.05;;;1.40;;
55559;SDS011;41414;53.250;6.514;2022-07-15T14:54:17;4.95;;;1.50;;
55559;SDS011;41414;53.250;6.514;2022-07-15T14:56:43;5.22;;;1.50;;
55559;SDS011;41414;53.250;6.514;2022-07-15T14:59:09;3.10;;;1.55;;
55559;SDS011;41414;53.250;6.514;2022-07-15T15:01:35;3.17;;;1.50;;
55559;SDS011;41414;53.250;6.514;2022-07-15T15:04:01;2.60;;;1.33;;
55559;SDS011;41414;53.250;6.514;2022-07-15T15:06:28;3.53;;;1.40;;
55559;SDS011;41414;53.250;6.514;2022-07-15T15:08:54;3.33;;;1.95;;
55559;SDS011;41414;53.250;6.514;2022-07-15T15:11:20;3.40;;;1.63;;
55559;SDS011;41414;53.250;6.514;2022-07-15T15:13:46;7.28;;;1.83;;
55559;SDS011;41414;53.250;6.514;2022-07-15T15:16:13;4.68;;;1.67;;
55559;SDS011;41414;53.250;6.514;2022-07-15T15:18:39;6.97;;;1.58;;
55559;SDS011;41414;53.250;6.514;2022-07-15T15:21:05;6.20;;;1.90;;